Time;durP1;ratioP1;P1;durP2;ratioP2;P2;SDS_P1;SDS_P2;PMS_P1;PMS_P2;Temp;Humidity;BMP_temperature;BMP_pressure;BME280_temperature;BME280_humidity;BME280_pressure;Samples;Min_cycle;Max_cycle;Signal;HPM_P1;HPM_P2
2024/01/31 00:01:35;;;;;;;0.00;0.00;;;6.60;99.90;;;;;;5015664;28;20124;-68
2024/01/31 00:04:01;;;;;;;0.47;0.47;;;6.60;99.90;;;;;;5022135;28;20544;-68
2024/01/31 00:06:27;;;;;;;0.00;0.00;;;6.60;99.90;;;;;;5015786;28;20061;-69
2024/01/31 00:08:52;;;;;;;0.10;0.10;;;6.60;99.90;;;;;;5022757;28;20060;-68
2024/01/31 00:11:19;;;;;;;0.10;0.10;;;6.70;99.90;;;;;;5039668;28;20049;-68
2024/01/31 00:13:45;;;;;;;0.73;0.73;;;6.60;99.90;;;;;;5021207;28;20080;-68
2024/01/31 00:16:12;;;;;;;0.10;0.10;;;6.70;99.90;;;;;;5012899;28;20085;-67
2024/01/31 00:18:38;;;;;;;0.10;0.10;;;6.60;99.90;;;;;;5028343;28;20049;-68
2024/01/31 00:21:04;;;;;;;0.10;0.10;;;6.70;99.90;;;;;;5030240;28;20037;-68
2024/01/31 00:23:29;;;;;;;0.82;0.82;;;6.70;99.90;;;;;;5020022;28;20072;-68
2024/01/31 00:25:55;;;;;;;0.10;0.10;;;6.70;99.90;;;;;;5029503;28;20041;-68
2024/01/31 00:28:21;;;;;;;0.10;0.10;;;6.70;99.90;;;;;;5030886;28;20033;-68
2024/01/31 00:30:46;;;;;;;0.10;0.10;;;6.60;99.90;;;;;;5020646;28;20050;-69
2024/01/31 00:33:12;;;;;;;0.10;0.10;;;6.70;99.90;;;;;;5035786;28;20042;-69
2024/01/31 00:35:37;;;;;;;0.10;0.10;;;6.70;99.90;;;;;;5024600;28;20092;-68
2024/01/31 00:38:03;;;;;;;0.10;0.10;;;6.70;99.90;;;;;;5021859;28;20049;-69
2024/01/31 00:40:29;;;;;;;0.00;0.00;;;6.70;99.90;;;;;;5043686;28;20053;-69
2024/01/31 00:42:54;;;;;;;0.10;0.10;;;6.60;99.90;;;;;;5027784;28;20049;-69
2024/01/31 00:45:20;;;;;;;0.10;0.10;;;6.50;99.90;;;;;;5027715;28;20045;-69
2024/01/31 00:47:45;;;;;;;0.10;0.10;;;6.50;99.90;;;;;;5029981;28;20594;-69
2024/01/31 00:50:12;;;;;;;0.22;0.22;;;6.50;99.90;;;;;;5029809;28;20029;-68
2024/01/31 00:52:39;;;;;;;0.00;0.00;;;6.50;99.90;;;;;;5033715;28;20050;-68
2024/01/31 00:55:06;;;;;;;0.30;0.30;;;6.50;99.90;;;;;;5026404;28;20053;-68
2024/01/31 00:57:31;;;;;;;0.10;0.10;;;6.50;99.90;;;;;;5023705;28;20049;-69
2024/01/31 00:59:57;;;;;;;0.10;0.10;;;6.50;99.90;;;;;;5019195;28;20033;-68
2024/01/31 01:02:22;;;;;;;0.00;0.00;;;6.40;99.90;;;;;;5022148;28;20142;-68
2024/01/31 01:04:48;;;;;;;0.10;0.10;;;6.30;99.90;;;;;;5021202;28;20434;-69
2024/01/31 01:07:13;;;;;;;0.00;0.00;;;6.30;99.90;;;;;;5026768;28;20034;-68
2024/01/31 01:09:39;;;;;;;5.53;1.90;;;6.30;99.90;;;;;;5018756;28;20045;-68
2024/01/31 01:12:05;;;;;;;0.10;0.10;;;6.20;99.90;;;;;;5024357;28;20056;-68
2024/01/31 01:14:30;;;;;;;0.30;0.30;;;6.20;99.90;;;;;;5024119;28;20378;-68
2024/01/31 01:16:56;;;;;;;0.10;0.10;;;6.20;99.90;;;;;;5026380;28;20049;-68
2024/01/31 01:19:21;;;;;;;0.10;0.10;;;6.20;99.90;;;;;;5021274;28;20034;-68
2024/01/31 01:21:47;;;;;;;0.00;0.00;;;6.30;99.90;;;;;;5022401;28;20060;-68
2024/01/31 01:24:13;;;;;;;0.10;0.10;;;6.20;99.90;;;;;;5028070;28;20129;-69
2024/01/31 01:26:39;;;;;;;0.10;0.10;;;6.10;99.90;;;;;;5041243;28;20129;-69
2024/01/31 01:29:05;;;;;;;1.65;1.13;;;6.10;99.90;;;;;;5015434;28;20046;-68
2024/01/31 01:31:31;;;;;;;0.00;0.00;;;6.10;99.90;;;;;;5016780;28;20045;-68
2024/01/31 01:33:56;;;;;;;0.08;0.08;;;6.10;99.90;;;;;;5026665;28;20041;-68
2024/01/31 01:36:22;;;;;;;0.10;0.10;;;6.10;99.90;;;;;;5023841;28;20073;-69
2024/01/31 01:38:47;;;;;;;0.10;0.10;;;6.10;99.90;;;;;;5028461;28;20761;-68
2024/01/31 01:41:13;;;;;;;0.38;0.38;;;6.10;99.90;;;;;;5028223;28;20046;-69
2024/01/31 01:43:42;;;;;;;0.00;0.00;;;6.10;99.90;;;;;;5021899;28;20112;-68
2024/01/31 01:46:12;;;;;;;0.10;0.10;;;6.10;99.90;;;;;;5016531;28;20095;-68
2024/01/31 01:48:38;;;;;;;0.10;0.10;;;6.20;99.90;;;;;;5037186;28;20830;-69
2024/01/31 01:51:05;;;;;;;0.10;0.10;;;6.20;99.90;;;;;;5026745;28;20158;-68
2024/01/31 01:53:34;;;;;;;0.10;0.10;;;6.20;99.90;;;;;;5044859;28;20034;-69
2024/01/31 01:56:02;;;;;;;0.20;0.20;;;6.20;99.90;;;;;;5038979;28;20450;-68
2024/01/31 01:58:28;;;;;;;0.10;0.10;;;6.20;99.90;;;;;;5025708;28;20037;-69
2024/01/31 02:00:55;;;;;;;3.63;1.27;;;6.20;99.90;;;;;;5024067;28;20085;-68
2024/01/31 02:03:21;;;;;;;0.10;0.10;;;6.10;99.90;;;;;;5016214;28;20063;-68
2024/01/31 02:05:47;;;;;;;0.00;0.00;;;6.20;99.90;;;;;;5022995;28;20053;-68
2024/01/31 02:08:13;;;;;;;0.10;0.10;;;6.20;99.90;;;;;;5026723;28;20485;-68
2024/01/31 02:10:39;;;;;;;0.80;0.80;;;6.10;99.90;;;;;;5021835;28;20050;-68
2024/01/31 02:13:04;;;;;;;0.90;0.90;;;6.10;99.90;;;;;;5028441;28;20036;-68
2024/01/31 02:15:30;;;;;;;3.20;1.65;;;6.10;99.90;;;;;;5020988;28;20124;-68
2024/01/31 02:17:56;;;;;;;0.10;0.10;;;6.10;99.90;;;;;;5021357;28;20033;-68
2024/01/31 02:20:22;;;;;;;0.10;0.10;;;6.10;99.90;;;;;;5024549;28;20756;-68
2024/01/31 02:22:48;;;;;;;0.85;0.85;;;6.10;99.90;;;;;;5023780;28;20049;-68
2024/01/31 02:25:14;;;;;;;0.10;0.10;;;6.10;99.90;;;;;;5018334;28;20514;-68
2024/01/31 02:27:40;;;;;;;0.10;0.10;;;6.00;99.90;;;;;;5027319;28;20041;-68
2024/01/31 02:30:07;;;;;;;0.10;0.10;;;6.10;99.90;;;;;;5025986;28;20041;-68
2024/01/31 02:32:34;;;;;;;0.10;0.10;;;6.10;99.90;;;;;;5014319;28;20288;-68
2024/01/31 02:34:59;;;;;;;0.10;0.10;;;6.10;99.90;;;;;;5022227;28;20029;-68
2024/01/31 02:37:25;;;;;;;0.10;0.10;;;6.10;99.90;;;;;;5026705;28;20732;-68
2024/01/31 02:39:50;;;;;;;0.10;0.10;;;6.10;99.90;;;;;;5025295;28;20044;-68
2024/01/31 02:42:16;;;;;;;0.32;0.32;;;6.10;99.90;;;;;;5022549;28;20065;-68
2024/01/31 02:44:42;;;;;;;0.10;0.10;;;6.10;99.90;;;;;;5021580;28;20538;-68
2024/01/31 02:47:07;;;;;;;0.10;0.10;;;6.20;99.90;;;;;;5013600;28;20053;-68
2024/01/31 02:49:33;;;;;;;0.10;0.10;;;6.20;99.90;;;;;;5011307;28;20138;-68
2024/01/31 02:51:58;;;;;;;0.00;0.00;;;6.10;99.90;;;;;;5018694;28;20034;-68
2024/01/31 02:54:24;;;;;;;0.10;0.10;;;6.10;99.90;;;;;;5026704;28;20041;-68
2024/01/31 02:56:49;;;;;;;0.10;0.10;;;6.10;99.90;;;;;;5021225;28;20049;-68
2024/01/31 02:59:15;;;;;;;0.10;0.10;;;6.10;99.90;;;;;;5026053;28;20481;-68
2024/01/31 03:01:45;;;;;;;0.10;0.10;;;6.10;99.90;;;;;;5014004;28;20405;-68
2024/01/31 03:04:11;;;;;;;0.10;0.10;;;6.10;99.90;;;;;;5037863;28;20095;-68
2024/01/31 03:06:37;;;;;;;0.10;0.10;;;6.10;99.90;;;;;;5017569;28;20132;-68
2024/01/31 03:09:03;;;;;;;0.10;0.10;;;6.10;99.90;;;;;;5024566;28;20132;-68
2024/01/31 03:11:29;;;;;;;0.10;0.10;;;6.10;99.90;;;;;;5025166;28;20165;-69
2024/01/31 03:13:54;;;;;;;0.00;0.00;;;6.00;99.90;;;;;;5022877;28;20132;-68
2024/01/31 03:16:20;;;;;;;0.10;0.10;;;6.10;99.90;;;;;;5018397;28;20042;-68
2024/01/31 03:18:45;;;;;;;0.00;0.00;;;6.00;99.90;;;;;;5022189;28;20092;-69
2024/01/31 03:21:11;;;;;;;0.00;0.00;;;6.00;99.90;;;;;;5017979;28;20046;-68
2024/01/31 03:23:37;;;;;;;0.10;0.10;;;6.00;99.90;;;;;;5018881;28;20128;-69
2024/01/31 03:26:02;;;;;;;0.10;0.10;;;6.00;99.90;;;;;;5026910;28;20033;-68
2024/01/31 03:28:28;;;;;;;0.00;0.00;;;6.10;99.90;;;;;;5020621;28;20128;-68
2024/01/31 03:30:54;;;;;;;0.10;0.10;;;6.10;99.90;;;;;;5022756;28;20042;-68
2024/01/31 03:33:19;;;;;;;0.10;0.10;;;6.10;99.90;;;;;;5014587;28;20441;-68
2024/01/31 03:35:45;;;;;;;0.00;0.00;;;6.20;99.90;;;;;;5024108;28;20049;-69
2024/01/31 03:38:10;;;;;;;0.08;0.08;;;6.10;99.90;;;;;;5027629;28;20043;-68
2024/01/31 03:40:36;;;;;;;0.10;0.10;;;6.10;99.90;;;;;;5022860;28;20081;-68
2024/01/31 03:43:02;;;;;;;0.10;0.10;;;6.10;99.90;;;;;;5023757;28;20081;-68
2024/01/31 03:45:28;;;;;;;0.10;0.10;;;6.10;99.90;;;;;;5026417;28;20045;-68
2024/01/31 03:47:54;;;;;;;0.00;0.00;;;6.10;99.90;;;;;;5019177;28;20045;-68
2024/01/31 03:50:20;;;;;;;0.10;0.10;;;6.10;99.90;;;;;;5022239;28;20081;-68
2024/01/31 03:52:46;;;;;;;0.10;0.10;;;6.10;99.90;;;;;;5040464;28;20049;-68
2024/01/31 03:55:11;;;;;;;0.00;0.00;;;6.10;99.90;;;;;;5017369;28;20050;-68
2024/01/31 03:57:37;;;;;;;0.20;0.20;;;6.10;99.90;;;;;;5019274;28;20068;-68
2024/01/31 04:00:08;;;;;;;2.30;0.85;;;6.10;99.90;;;;;;5020001;28;20500;-68
2024/01/31 04:02:34;;;;;;;0.10;0.10;;;6.00;99.90;;;;;;5025307;28;20120;-68
2024/01/31 04:05:00;;;;;;;0.00;0.00;;;6.10;99.90;;;;;;5026178;28;20033;-69
2024/01/31 04:07:29;;;;;;;0.00;0.00;;;6.10;99.90;;;;;;5021467;28;20107;-68
2024/01/31 04:09:55;;;;;;;0.00;0.00;;;6.10;99.90;;;;;;5023240;28;20133;-68
2024/01/31 04:12:21;;;;;;;0.00;0.00;;;6.10;99.90;;;;;;5021588;28;20569;-68
2024/01/31 04:14:46;;;;;;;0.10;0.10;;;6.10;99.90;;;;;;5025344;28;20111;-68
2024/01/31 04:17:12;;;;;;;0.00;0.00;;;6.10;99.90;;;;;;5025907;28;20041;-68
2024/01/31 04:19:37;;;;;;;0.00;0.00;;;6.10;99.90;;;;;;5018165;28;20115;-69
2024/01/31 04:22:03;;;;;;;0.00;0.00;;;6.10;99.90;;;;;;5028059;28;20075;-69
2024/01/31 04:24:29;;;;;;;0.10;0.10;;;6.10;99.90;;;;;;5015225;28;20061;-69
2024/01/31 04:26:54;;;;;;;0.10;0.10;;;6.10;99.90;;;;;;5018185;28;20042;-69
2024/01/31 04:29:20;;;;;;;0.10;0.10;;;6.10;99.90;;;;;;5013884;28;20131;-69
2024/01/31 04:31:51;;;;;;;0.10;0.10;;;6.10;99.90;;;;;;5022454;28;20049;-69
2024/01/31 04:34:17;;;;;;;0.00;0.00;;;6.10;99.90;;;;;;5017497;28;20160;-69
2024/01/31 04:36:42;;;;;;;0.10;0.10;;;6.10;99.90;;;;;;5022489;28;20457;-66
2024/01/31 04:39:08;;;;;;;0.10;0.10;;;6.00;99.90;;;;;;5022779;28;20075;-66
2024/01/31 04:41:35;;;;;;;0.00;0.00;;;6.00;99.90;;;;;;5020229;28;20063;-66
2024/01/31 04:44:00;;;;;;;0.00;0.00;;;6.00;99.90;;;;;;5013134;28;20043;-66
2024/01/31 04:46:26;;;;;;;0.10;0.10;;;6.00;99.90;;;;;;5021871;28;20116;-66
2024/01/31 04:48:51;;;;;;;0.10;0.10;;;5.90;99.90;;;;;;5019216;28;20048;-66
2024/01/31 04:51:18;;;;;;;0.10;0.10;;;5.90;99.90;;;;;;5021837;28;20038;-66
2024/01/31 04:53:43;;;;;;;0.10;0.10;;;5.90;99.90;;;;;;5025433;28;20506;-66
2024/01/31 04:56:09;;;;;;;0.10;0.10;;;5.90;99.90;;;;;;5024477;28;20131;-66
2024/01/31 04:58:35;;;;;;;0.10;0.10;;;5.80;99.90;;;;;;5031371;28;20042;-67
2024/01/31 05:01:01;;;;;;;0.10;0.10;;;5.80;99.90;;;;;;5018057;28;20037;-66
2024/01/31 05:03:27;;;;;;;0.10;0.10;;;5.80;99.90;;;;;;5022392;28;20132;-66
2024/01/31 05:05:53;;;;;;;0.10;0.10;;;5.70;99.90;;;;;;5029136;28;20072;-66
2024/01/31 05:08:19;;;;;;;0.98;0.95;;;5.60;99.90;;;;;;5022024;28;20056;-66
2024/01/31 05:10:45;;;;;;;0.40;0.40;;;5.60;99.90;;;;;;5026243;28;20284;-66
2024/01/31 05:13:12;;;;;;;0.10;0.10;;;5.60;99.90;;;;;;5028082;28;20060;-66
2024/01/31 05:15:38;;;;;;;0.10;0.10;;;5.50;99.90;;;;;;5023822;28;20401;-66
2024/01/31 05:18:04;;;;;;;0.57;0.57;;;5.50;99.90;;;;;;5024911;28;20044;-66
2024/01/31 05:20:29;;;;;;;0.00;0.00;;;5.40;99.90;;;;;;5028702;28;20440;-66
2024/01/31 05:22:56;;;;;;;0.10;0.10;;;5.40;99.90;;;;;;5023288;28;20042;-67
2024/01/31 05:25:21;;;;;;;0.10;0.10;;;5.40;99.90;;;;;;5027910;28;20536;-66
2024/01/31 05:27:49;;;;;;;0.10;0.10;;;5.40;99.90;;;;;;5025829;28;20042;-66
2024/01/31 05:30:14;;;;;;;0.10;0.10;;;5.30;99.90;;;;;;5019121;28;20049;-66
2024/01/31 05:32:40;;;;;;;0.10;0.10;;;5.30;99.90;;;;;;5025298;28;20068;-66
2024/01/31 05:35:07;;;;;;;0.10;0.10;;;5.30;99.90;;;;;;5025785;28;20499;-66
2024/01/31 05:37:33;;;;;;;0.10;0.10;;;5.20;99.90;;;;;;5027179;28;20512;-66
2024/01/31 05:39:58;;;;;;;0.10;0.10;;;5.20;99.90;;;;;;5023540;28;20049;-66
2024/01/31 05:42:24;;;;;;;3.20;1.65;;;5.20;99.90;;;;;;5024145;28;20092;-66
2024/01/31 05:44:53;;;;;;;0.10;0.10;;;5.20;99.90;;;;;;5020057;28;20041;-66
2024/01/31 05:47:19;;;;;;;0.10;0.10;;;5.20;99.90;;;;;;5042789;28;20038;-66
2024/01/31 05:49:44;;;;;;;0.10;0.10;;;5.10;99.90;;;;;;5018870;28;20053;-66
2024/01/31 05:52:10;;;;;;;0.10;0.10;;;5.10;99.90;;;;;;5040280;28;20044;-66
2024/01/31 05:54:37;;;;;;;0.10;0.10;;;5.00;99.90;;;;;;5023373;28;20056;-67
2024/01/31 05:57:03;;;;;;;0.10;0.10;;;5.00;99.90;;;;;;5021320;28;20497;-66
2024/01/31 05:59:28;;;;;;;0.10;0.10;;;5.00;99.90;;;;;;5023623;28;20049;-66
2024/01/31 06:01:54;;;;;;;0.10;0.10;;;5.00;99.90;;;;;;5021282;28;20143;-66
2024/01/31 06:04:20;;;;;;;0.10;0.10;;;4.90;99.90;;;;;;5022018;28;20076;-66
2024/01/31 06:06:45;;;;;;;0.10;0.10;;;4.90;99.90;;;;;;5027925;28;20049;-66
2024/01/31 06:09:12;;;;;;;0.10;0.10;;;4.90;99.90;;;;;;5025157;28;20049;-68
2024/01/31 06:11:38;;;;;;;0.00;0.00;;;4.90;99.90;;;;;;5035826;28;20600;-68
2024/01/31 06:14:03;;;;;;;0.10;0.10;;;4.90;99.90;;;;;;5020209;28;20046;-68
2024/01/31 06:16:29;;;;;;;0.10;0.10;;;4.80;99.90;;;;;;5025528;28;20049;-68
2024/01/31 06:18:55;;;;;;;0.20;0.20;;;4.80;99.90;;;;;;5029419;28;20046;-68
2024/01/31 06:21:21;;;;;;;0.20;0.20;;;4.80;99.90;;;;;;5021118;28;20077;-68
2024/01/31 06:23:47;;;;;;;0.00;0.00;;;4.80;99.90;;;;;;5019601;28;20034;-68
2024/01/31 06:26:13;;;;;;;0.10;0.10;;;4.80;99.90;;;;;;5020623;28;20228;-68
2024/01/31 06:28:39;;;;;;;0.10;0.10;;;4.80;99.90;;;;;;5018255;28;20144;-69
2024/01/31 06:31:16;;;;;;;0.10;0.10;;;4.80;99.90;;;;;;5020054;28;20100;-69
2024/01/31 06:33:42;;;;;;;1.67;1.55;;;4.70;99.90;;;;;;5019710;28;20094;-68
2024/01/31 06:36:08;;;;;;;0.90;0.90;;;4.70;99.90;;;;;;5028406;28;20041;-68
2024/01/31 06:38:34;;;;;;;0.10;0.10;;;4.80;99.90;;;;;;5043158;28;20053;-68
2024/01/31 06:40:59;;;;;;;0.10;0.10;;;4.80;99.90;;;;;;5019721;28;20527;-68
2024/01/31 06:43:25;;;;;;;0.10;0.10;;;4.80;99.90;;;;;;5027106;28;20049;-68
2024/01/31 06:45:52;;;;;;;0.10;0.10;;;4.80;99.90;;;;;;5025055;28;20061;-68
2024/01/31 06:48:17;;;;;;;0.10;0.10;;;4.80;99.90;;;;;;5018663;28;20034;-69
2024/01/31 06:50:43;;;;;;;0.10;0.10;;;4.80;99.90;;;;;;5023352;28;20665;-68
2024/01/31 06:53:08;;;;;;;0.10;0.10;;;4.80;99.90;;;;;;5024646;28;20034;-68
2024/01/31 06:55:34;;;;;;;0.10;0.10;;;4.80;99.90;;;;;;5022925;28;20054;-69
2024/01/31 06:58:00;;;;;;;0.00;0.00;;;4.90;99.90;;;;;;5026486;28;20668;-69
2024/01/31 07:00:25;;;;;;;0.10;0.10;;;4.90;99.90;;;;;;5042547;28;20104;-68
2024/01/31 07:02:52;;;;;;;0.20;0.20;;;4.90;99.90;;;;;;5017317;28;20037;-68
2024/01/31 07:05:19;;;;;;;0.10;0.10;;;5.00;99.90;;;;;;5018497;28;20053;-68
2024/01/31 07:07:46;;;;;;;0.10;0.10;;;5.00;99.90;;;;;;5022232;28;20110;-68
2024/01/31 07:10:11;;;;;;;0.00;0.00;;;5.10;99.90;;;;;;5020129;28;20386;-68
2024/01/31 07:12:37;;;;;;;0.10;0.10;;;5.10;99.90;;;;;;5017801;28;20064;-68
2024/01/31 07:15:03;;;;;;;0.10;0.10;;;5.10;99.90;;;;;;5024861;28;20084;-68
2024/01/31 07:17:29;;;;;;;1.35;1.25;;;5.20;99.90;;;;;;5024822;28;20110;-69
2024/01/31 07:19:54;;;;;;;0.20;0.20;;;5.20;99.90;;;;;;5025064;28;20041;-69
2024/01/31 07:22:20;;;;;;;0.10;0.10;;;5.30;99.90;;;;;;5012089;28;20060;-68
2024/01/31 07:24:45;;;;;;;0.10;0.10;;;5.30;99.90;;;;;;5024182;28;20133;-68
2024/01/31 07:27:11;;;;;;;0.10;0.10;;;5.30;99.90;;;;;;5028365;28;20485;-66
2024/01/31 07:29:36;;;;;;;0.10;0.10;;;5.30;99.90;;;;;;5010861;28;20061;-67
2024/01/31 07:32:02;;;;;;;0.10;0.10;;;5.30;99.90;;;;;;5019567;28;20043;-66
2024/01/31 07:34:28;;;;;;;0.10;0.10;;;5.30;99.90;;;;;;5025955;28;20185;-67
2024/01/31 07:36:53;;;;;;;0.20;0.20;;;5.40;99.90;;;;;;5016755;28;20073;-66
2024/01/31 07:39:19;;;;;;;0.10;0.10;;;5.40;99.90;;;;;;5018240;28;20033;-67
2024/01/31 07:41:45;;;;;;;0.10;0.10;;;5.40;99.90;;;;;;5024612;28;20132;-67
2024/01/31 07:44:11;;;;;;;0.10;0.10;;;5.40;99.90;;;;;;5025404;28;20114;-67
2024/01/31 07:46:36;;;;;;;0.10;0.10;;;5.40;99.90;;;;;;5023263;28;20101;-67
2024/01/31 07:49:04;;;;;;;0.10;0.10;;;5.40;99.90;;;;;;5025876;28;20049;-66
2024/01/31 07:51:30;;;;;;;1.23;1.13;;;5.40;99.90;;;;;;5017456;28;20095;-67
2024/01/31 07:53:55;;;;;;;0.10;0.10;;;5.40;99.90;;;;;;5018120;28;20041;-66
2024/01/31 07:56:21;;;;;;;0.10;0.10;;;5.40;99.90;;;;;;5021720;28;20041;-66
2024/01/31 07:58:46;;;;;;;0.10;0.10;;;5.50;99.90;;;;;;5027140;28;20518;-66
2024/01/31 08:01:12;;;;;;;0.10;0.10;;;5.50;99.90;;;;;;5027230;28;20064;-67
2024/01/31 08:03:42;;;;;;;0.10;0.10;;;5.50;99.90;;;;;;5016053;28;20060;-67
2024/01/31 08:06:08;;;;;;;0.10;0.10;;;5.50;99.90;;;;;;5023032;28;20041;-66
2024/01/31 08:08:36;;;;;;;2.00;0.98;;;5.50;99.90;;;;;;5014122;28;20103;-67
2024/01/31 08:11:04;;;;;;;0.10;0.10;;;5.50;99.90;;;;;;5017469;28;20692;-66
2024/01/31 08:13:29;;;;;;;0.10;0.10;;;5.60;99.90;;;;;;5030402;28;20041;-66
2024/01/31 08:15:55;;;;;;;0.10;0.10;;;5.60;99.90;;;;;;5030114;28;20071;-66
2024/01/31 08:18:21;;;;;;;0.10;0.10;;;5.60;99.90;;;;;;5022003;28;20088;-66
2024/01/31 08:20:46;;;;;;;0.20;0.20;;;5.60;99.90;;;;;;5021796;28;20456;-66
2024/01/31 08:23:12;;;;;;;0.10;0.10;;;5.60;99.90;;;;;;5025277;28;20030;-66
2024/01/31 08:25:37;;;;;;;0.20;0.20;;;5.70;99.90;;;;;;5017274;28;20108;-67
2024/01/31 08:28:04;;;;;;;0.10;0.10;;;5.70;99.90;;;;;;5021448;28;20040;-66
2024/01/31 08:30:29;;;;;;;0.10;0.10;;;5.70;99.90;;;;;;5012294;28;20437;-67
2024/01/31 08:32:55;;;;;;;3.72;2.50;;;5.70;99.90;;;;;;5016407;28;20045;-66
2024/01/31 08:35:21;;;;;;;0.20;0.20;;;5.70;99.90;;;;;;5015449;28;20469;-66
2024/01/31 08:37:46;;;;;;;0.10;0.10;;;5.70;99.90;;;;;;5024351;28;20124;-66
2024/01/31 08:40:12;;;;;;;0.20;0.20;;;5.70;99.90;;;;;;5031624;28;20133;-66
2024/01/31 08:42:38;;;;;;;0.30;0.30;;;5.70;99.90;;;;;;5023347;28;20468;-67
2024/01/31 08:45:09;;;;;;;0.10;0.10;;;5.80;99.90;;;;;;5028426;28;20391;-67
2024/01/31 08:47:35;;;;;;;0.10;0.10;;;5.90;99.90;;;;;;5021317;28;20092;-67
2024/01/31 08:50:01;;;;;;;0.10;0.10;;;5.90;99.90;;;;;;5019416;28;20037;-67
2024/01/31 08:52:27;;;;;;;0.10;0.10;;;5.90;99.90;;;;;;5020074;28;20578;-67
2024/01/31 08:54:52;;;;;;;0.35;0.35;;;5.90;99.90;;;;;;5028898;28;20049;-66
2024/01/31 08:57:18;;;;;;;0.10;0.10;;;6.00;99.90;;;;;;5031525;28;20056;-67
2024/01/31 08:59:43;;;;;;;0.10;0.10;;;6.00;99.90;;;;;;5016635;28;20539;-66
2024/01/31 09:02:09;;;;;;;0.63;0.55;;;6.10;99.90;;;;;;5026611;28;20041;-66
2024/01/31 09:04:35;;;;;;;2.30;0.80;;;6.10;99.90;;;;;;5029439;28;20052;-66
2024/01/31 09:07:00;;;;;;;0.30;0.30;;;6.10;99.90;;;;;;5028355;28;20132;-66
2024/01/31 09:09:26;;;;;;;0.55;0.55;;;6.10;99.90;;;;;;5018556;28;20152;-66
2024/01/31 09:11:52;;;;;;;0.10;0.10;;;6.10;99.90;;;;;;5025047;28;20046;-66
2024/01/31 09:14:18;;;;;;;0.10;0.10;;;6.20;99.90;;;;;;5029502;28;20086;-67
2024/01/31 09:16:43;;;;;;;0.10;0.10;;;6.20;99.90;;;;;;5019542;28;20060;-66
2024/01/31 09:19:09;;;;;;;0.20;0.20;;;6.20;99.90;;;;;;5022191;28;20053;-66
2024/01/31 09:21:35;;;;;;;0.70;0.70;;;6.20;99.90;;;;;;5029863;28;20042;-66
2024/01/31 09:24:01;;;;;;;2.92;1.27;;;6.30;99.90;;;;;;5027601;28;20171;-67
2024/01/31 09:26:27;;;;;;;0.00;0.00;;;6.30;99.90;;;;;;5023065;28;20053;-66
2024/01/31 09:28:52;;;;;;;0.20;0.20;;;6.30;99.90;;;;;;5029750;28;20049;-66
2024/01/31 09:31:25;;;;;;;0.10;0.10;;;6.30;99.90;;;;;;5028895;28;20050;-66
2024/01/31 09:33:52;;;;;;;0.40;0.40;;;6.30;99.90;;;;;;5032320;28;20125;-66
2024/01/31 09:36:18;;;;;;;0.30;0.30;;;6.40;99.90;;;;;;5029615;28;20056;-66
2024/01/31 09:38:47;;;;;;;4.18;1.30;;;6.30;99.90;;;;;;5021392;28;20470;-67
2024/01/31 09:41:12;;;;;;;0.20;0.20;;;6.40;99.90;;;;;;5025236;28;20046;-66
2024/01/31 09:43:38;;;;;;;1.38;1.27;;;6.40;99.90;;;;;;5024574;28;20056;-67
2024/01/31 09:46:06;;;;;;;0.98;0.98;;;6.40;99.90;;;;;;5023484;28;20409;-67
2024/01/31 09:48:33;;;;;;;0.10;0.10;;;6.40;99.90;;;;;;5028057;28;20069;-67
2024/01/31 09:50:59;;;;;;;0.80;0.80;;;6.40;99.90;;;;;;5026026;28;20731;-67
2024/01/31 09:53:25;;;;;;;1.00;0.75;;;6.40;99.90;;;;;;5019189;28;20033;-67
2024/01/31 09:55:55;;;;;;;0.65;0.65;;;6.50;99.90;;;;;;5029490;28;20043;-67
2024/01/31 09:58:21;;;;;;;0.32;0.32;;;6.50;99.90;;;;;;5021622;28;20045;-66
2024/01/31 10:00:50;;;;;;;0.10;0.10;;;6.60;99.90;;;;;;5042340;28;20065;-67
2024/01/31 10:03:16;;;;;;;0.45;0.45;;;6.60;99.90;;;;;;5019760;28;20038;-67
2024/01/31 10:05:42;;;;;;;0.10;0.10;;;6.70;99.90;;;;;;5021016;28;20042;-66
2024/01/31 10:08:08;;;;;;;0.30;0.30;;;6.70;99.90;;;;;;5030217;28;20042;-67
2024/01/31 10:10:33;;;;;;;0.13;0.13;;;6.70;99.90;;;;;;5026661;28;20132;-67
2024/01/31 10:12:59;;;;;;;0.70;0.55;;;6.70;99.90;;;;;;5019343;28;20045;-67
2024/01/31 10:15:25;;;;;;;0.20;0.20;;;6.70;99.90;;;;;;5023532;28;20091;-67
2024/01/31 10:17:52;;;;;;;0.10;0.10;;;6.80;99.90;;;;;;5018771;28;20049;-67
2024/01/31 10:20:18;;;;;;;2.83;0.80;;;6.80;99.90;;;;;;5029380;28;20504;-67
2024/01/31 10:22:45;;;;;;;0.20;0.20;;;6.80;99.90;;;;;;5016547;28;20168;-66
2024/01/31 10:25:15;;;;;;;0.82;0.57;;;6.80;99.90;;;;;;5028700;28;20564;-67
2024/01/31 10:27:41;;;;;;;2.20;1.98;;;6.80;99.90;;;;;;5021876;28;20389;-67
2024/01/31 10:30:10;;;;;;;0.10;0.10;;;6.80;99.90;;;;;;5023302;28;20088;-67
2024/01/31 10:32:38;;;;;;;0.30;0.30;;;6.80;99.90;;;;;;5028501;28;20057;-67
2024/01/31 10:35:05;;;;;;;0.10;0.10;;;6.80;99.90;;;;;;5017007;28;20070;-67
2024/01/31 10:37:31;;;;;;;0.65;0.65;;;6.80;99.90;;;;;;5023371;28;20072;-67
2024/01/31 10:39:59;;;;;;;0.10;0.10;;;6.80;99.90;;;;;;5027803;28;20501;-67
2024/01/31 10:42:26;;;;;;;0.63;0.55;;;6.80;99.90;;;;;;5030121;28;20580;-67
2024/01/31 10:44:52;;;;;;;0.20;0.20;;;6.80;99.90;;;;;;5016660;28;20033;-67
2024/01/31 10:47:18;;;;;;;0.47;0.47;;;6.80;99.90;;;;;;5026207;28;20029;-67
2024/01/31 10:49:43;;;;;;;0.20;0.20;;;6.80;99.90;;;;;;5027153;28;20057;-67
2024/01/31 10:52:13;;;;;;;3.20;1.55;;;6.80;99.90;;;;;;5015970;28;20044;-67
2024/01/31 10:54:44;;;;;;;0.45;0.40;;;6.80;99.90;;;;;;5019291;28;20584;-66
2024/01/31 10:57:11;;;;;;;2.45;2.03;;;6.80;99.90;;;;;;5021354;28;20045;-67
2024/01/31 10:59:37;;;;;;;0.35;0.35;;;6.80;99.90;;;;;;5027186;28;20041;-67
2024/01/31 11:02:03;;;;;;;0.10;0.10;;;6.90;99.90;;;;;;5024796;28;20382;-67
2024/01/31 11:04:29;;;;;;;0.10;0.10;;;6.90;99.90;;;;;;5015396;28;20041;-67
2024/01/31 11:06:59;;;;;;;0.10;0.10;;;6.90;99.90;;;;;;5023845;28;20114;-67
2024/01/31 11:09:25;;;;;;;0.10;0.10;;;6.90;99.90;;;;;;5021411;28;20046;-67
2024/01/31 11:12:04;;;;;;;0.00;0.00;;;6.90;99.90;;;;;;5026949;28;20068;-66
2024/01/31 11:14:31;;;;;;;0.10;0.10;;;6.90;99.90;;;;;;5012257;28;20109;-66
2024/01/31 11:17:34;;;;;;;0.63;0.63;;;6.90;99.90;;;;;;5025336;28;20045;-66
2024/01/31 11:20:00;;;;;;;0.20;0.20;;;6.90;99.90;;;;;;5025098;28;20041;-66
2024/01/31 11:22:27;;;;;;;0.40;0.40;;;6.90;99.90;;;;;;5026017;28;20057;-66
2024/01/31 11:24:54;;;;;;;0.20;0.20;;;6.90;99.90;;;;;;5026338;28;20077;-66
2024/01/31 11:27:20;;;;;;;0.30;0.30;;;6.90;99.90;;;;;;5024432;28;20068;-66
2024/01/31 11:29:51;;;;;;;0.10;0.10;;;6.90;99.90;;;;;;5011449;28;20049;-66
2024/01/31 11:32:17;;;;;;;0.10;0.10;;;6.90;99.90;;;;;;5024882;28;20379;-66
2024/01/31 11:34:43;;;;;;;0.45;0.45;;;6.90;99.90;;;;;;5017848;28;20083;-66
2024/01/31 11:37:10;;;;;;;1.35;1.20;;;6.90;99.90;;;;;;5024126;28;20092;-66
2024/01/31 11:39:36;;;;;;;0.20;0.20;;;6.90;99.90;;;;;;5021973;28;20124;-66
2024/01/31 11:42:01;;;;;;;0.10;0.10;;;6.90;99.90;;;;;;5015241;28;20137;-66
2024/01/31 11:44:29;;;;;;;0.22;0.22;;;7.00;99.90;;;;;;5014630;28;20045;-65
2024/01/31 11:46:55;;;;;;;0.30;0.30;;;7.00;99.90;;;;;;5026226;28;20139;-66
2024/01/31 11:49:22;;;;;;;1.88;1.00;;;7.00;99.90;;;;;;5019300;28;20041;-66
2024/01/31 11:51:48;;;;;;;0.10;0.10;;;7.00;99.90;;;;;;5022559;28;20057;-65
2024/01/31 11:54:14;;;;;;;0.00;0.00;;;7.00;99.90;;;;;;5028866;28;20489;-66
2024/01/31 11:56:40;;;;;;;0.17;0.17;;;7.00;99.90;;;;;;5027043;28;20052;-66
2024/01/31 11:59:06;;;;;;;0.10;0.10;;;7.00;99.90;;;;;;5017747;28;20386;-66
2024/01/31 12:01:32;;;;;;;0.08;0.08;;;7.10;99.90;;;;;;5018936;28;20501;-66
2024/01/31 12:03:58;;;;;;;1.10;1.00;;;7.10;99.90;;;;;;5014370;28;20077;-66
2024/01/31 12:06:23;;;;;;;0.32;0.32;;;7.10;99.90;;;;;;5024206;28;20209;-66
2024/01/31 12:08:49;;;;;;;0.32;0.32;;;7.10;99.90;;;;;;5017100;28;20034;-66
2024/01/31 12:11:16;;;;;;;0.20;0.20;;;7.10;99.90;;;;;;5026602;28;20552;-66
2024/01/31 12:13:43;;;;;;;0.20;0.20;;;7.10;99.90;;;;;;5025601;28;20087;-66
2024/01/31 12:16:10;;;;;;;0.10;0.10;;;7.10;99.90;;;;;;5016217;28;20467;-66
2024/01/31 12:18:37;;;;;;;0.10;0.10;;;7.10;99.90;;;;;;5020738;28;20046;-66
2024/01/31 12:21:04;;;;;;;0.65;0.65;;;7.10;99.90;;;;;;5023832;28;20375;-66
2024/01/31 12:23:30;;;;;;;0.10;0.10;;;7.10;99.90;;;;;;5020075;28;20120;-66
2024/01/31 12:25:56;;;;;;;0.10;0.10;;;7.20;99.90;;;;;;5014376;28;20057;-66
2024/01/31 12:28:22;;;;;;;0.20;0.20;;;7.20;99.90;;;;;;5018067;28;20064;-66
2024/01/31 12:30:48;;;;;;;0.10;0.10;;;7.20;99.90;;;;;;5024745;28;20830;-66
2024/01/31 12:33:14;;;;;;;0.73;0.73;;;7.20;99.90;;;;;;5024675;28;20045;-66
2024/01/31 12:35:39;;;;;;;1.88;0.95;;;7.20;99.90;;;;;;5011288;28;20042;-65
2024/01/31 12:38:05;;;;;;;0.20;0.20;;;7.30;99.90;;;;;;5020094;28;20464;-66
2024/01/31 12:40:30;;;;;;;0.60;0.60;;;7.30;99.90;;;;;;5024348;28;20045;-66
2024/01/31 12:42:57;;;;;;;0.65;0.65;;;7.30;99.90;;;;;;5020983;28;20501;-66
2024/01/31 12:45:23;;;;;;;0.50;0.50;;;7.30;99.90;;;;;;5033449;28;20478;-66
2024/01/31 12:47:49;;;;;;;0.10;0.10;;;7.30;99.90;;;;;;5024771;28;20238;-65
2024/01/31 12:50:14;;;;;;;0.10;0.10;;;7.40;99.90;;;;;;5026627;28;20905;-65
2024/01/31 12:52:40;;;;;;;0.00;0.00;;;7.30;99.90;;;;;;5024265;28;20120;-65